createdAt,value
2022-09-12T00:01:45.922Z,99.90
2022-09-12T00:04:13.704Z,99.90
2022-09-12T00:06:41.500Z,99.90
2022-09-12T00:09:11.996Z,99.90
2022-09-12T00:11:41.599Z,99.90
2022-09-12T00:14:10.763Z,99.90
2022-09-12T00:16:40.350Z,99.90
2022-09-12T00:19:09.302Z,99.90
2022-09-12T00:21:38.429Z,99.90
2022-09-12T00:24:06.780Z,99.90
2022-09-12T00:26:34.871Z,99.90
2022-09-12T00:29:02.688Z,99.90
2022-09-12T00:31:30.552Z,99.90
2022-09-12T00:34:01.812Z,99.90
2022-09-12T00:36:30.381Z,99.90
2022-09-12T00:38:58.600Z,99.90
2022-09-12T00:41:30.270Z,99.90
2022-09-12T00:44:00.252Z,99.90
2022-09-12T00:46:33.372Z,99.90
2022-09-12T00:49:05.964Z,99.90
2022-09-12T00:51:36.816Z,99.90
2022-09-12T00:54:08.992Z,99.90
2022-09-12T00:56:40.960Z,99.90
2022-09-12T00:59:12.741Z,99.90
2022-09-12T01:01:43.518Z,99.90
2022-09-12T01:04:13.829Z,99.90
2022-09-12T01:06:44.215Z,99.90
2022-09-12T01:09:16.505Z,99.90
2022-09-12T01:11:46.999Z,99.90
2022-09-12T01:14:15.297Z,99.90
2022-09-12T01:16:44.970Z,99.90
2022-09-12T01:19:35.061Z,99.90
2022-09-12T01:22:19.419Z,99.90
2022-09-12T01:24:55.577Z,99.90
2022-09-12T01:27:59.134Z,99.90
2022-09-12T01:30:34.930Z,99.90
2022-09-12T01:33:25.692Z,99.90
2022-09-12T01:36:10.078Z,99.90
2022-09-12T01:38:41.743Z,99.90
2022-09-12T01:41:17.810Z,99.90
2022-09-12T01:43:50.291Z,99.90
2022-09-12T01:46:24.476Z,99.90
2022-09-12T01:48:57.301Z,99.90
2022-09-12T01:51:32.190Z,99.90
2022-09-12T01:54:04.695Z,99.90
2022-09-12T01:56:36.501Z,99.90
2022-09-12T01:59:09.636Z,99.90
2022-09-12T02:01:45.512Z,99.90
2022-09-12T02:04:18.904Z,99.90
2022-09-12T02:06:53.301Z,99.90
2022-09-12T02:09:25.102Z,99.90
2022-09-12T02:11:58.809Z,99.90
2022-09-12T02:14:30.125Z,99.90
2022-09-12T02:17:02.324Z,99.90
2022-09-12T02:19:33.766Z,99.90
2022-09-12T02:22:04.297Z,99.90
2022-09-12T02:24:36.675Z,99.90
2022-09-12T02:27:09.058Z,99.90
2022-09-12T02:29:37.095Z,99.90
2022-09-12T02:32:13.617Z,99.90
2022-09-12T02:34:49.482Z,99.90
2022-09-12T02:37:26.158Z,99.90
2022-09-12T02:39:55.341Z,99.90
2022-09-12T02:42:23.469Z,99.90
2022-09-12T02:44:52.633Z,99.90
2022-09-12T02:47:28.235Z,99.90
2022-09-12T02:49:57.646Z,99.90
2022-09-12T02:52:26.435Z,99.90
2022-09-12T02:54:54.998Z,99.90
2022-09-12T02:57:23.424Z,99.90
2022-09-12T02:59:52.922Z,99.90
2022-09-12T03:02:33.297Z,99.90
2022-09-12T03:05:19.536Z,99.90
2022-09-12T03:08:32.085Z,99.90
2022-09-12T03:11:16.404Z,99.90
2022-09-12T03:13:56.246Z,99.90
2022-09-12T03:16:33.301Z,99.90
2022-09-12T03:19:10.616Z,99.90
2022-09-12T03:21:50.170Z,99.90
2022-09-12T03:24:22.332Z,99.90
2022-09-12T03:26:55.185Z,99.90
2022-09-12T03:29:25.200Z,99.90
2022-09-12T03:31:54.999Z,99.90
2022-09-12T03:34:26.082Z,99.90
2022-09-12T03:36:55.371Z,99.90
2022-09-12T03:39:24.273Z,99.90
2022-09-12T03:41:52.259Z,99.90
2022-09-12T03:44:20.376Z,99.90
2022-09-12T03:46:48.485Z,99.90
2022-09-12T03:49:17.604Z,99.90
2022-09-12T03:51:46.656Z,99.90
2022-09-12T03:54:14.450Z,99.90
2022-09-12T03:56:42.183Z,99.90
2022-09-12T03:59:09.900Z,99.90
2022-09-12T04:01:38.298Z,99.90
2022-09-12T04:04:06.130Z,99.90
2022-09-12T04:06:33.807Z,99.90
2022-09-12T04:09:02.904Z,99.90
2022-09-12T04:11:32.187Z,99.90
2022-09-12T04:13:59.936Z,99.90
2022-09-12T04:16:27.850Z,99.90
2022-09-12T04:18:55.712Z,99.90
2022-09-12T04:21:23.437Z,99.90
2022-09-12T04:23:51.419Z,99.90
2022-09-12T04:26:21.160Z,99.90
2022-09-12T04:28:49.083Z,99.90
2022-09-12T04:31:20.716Z,99.90
2022-09-12T04:33:48.439Z,99.90
2022-09-12T04:36:18.571Z,99.90
2022-09-12T04:38:47.908Z,99.90
2022-09-12T04:41:17.274Z,99.90
2022-09-12T04:43:47.758Z,99.90
2022-09-12T04:46:19.797Z,99.90
2022-09-12T04:48:48.080Z,99.90
2022-09-12T04:51:17.813Z,99.90
2022-09-12T04:53:50.009Z,99.90
2022-09-12T04:56:18.178Z,99.90
2022-09-12T04:58:47.694Z,99.90
2022-09-12T05:01:17.675Z,99.90
2022-09-12T05:03:47.118Z,99.90
2022-09-12T05:06:16.609Z,99.90
2022-09-12T05:08:44.757Z,99.90
2022-09-12T05:11:14.433Z,99.90
2022-09-12T05:13:42.472Z,99.90
2022-09-12T05:16:15.263Z,99.90
2022-09-12T05:18:44.311Z,99.90
2022-09-12T05:21:14.420Z,99.90
2022-09-12T05:23:42.378Z,99.90
2022-09-12T05:26:14.751Z,99.90
2022-09-12T05:28:42.566Z,99.90
2022-09-12T05:31:14.046Z,99.90
2022-09-12T05:33:43.671Z,99.90
2022-09-12T05:36:13.949Z,99.90
2022-09-12T05:38:41.928Z,99.90
2022-09-12T05:41:16.960Z,99.90
2022-09-12T05:43:47.556Z,99.90
2022-09-12T05:46:19.715Z,99.90
2022-09-12T05:48:51.439Z,99.90
2022-09-12T05:51:23.487Z,99.90
2022-09-12T05:53:55.041Z,99.90
2022-09-12T05:56:25.328Z,99.90
2022-09-12T05:58:55.329Z,99.90
2022-09-12T06:01:24.746Z,99.90
2022-09-12T06:03:54.239Z,99.90
2022-09-12T06:06:23.690Z,99.90
2022-09-12T06:08:53.103Z,99.90
2022-09-12T06:11:23.693Z,99.90
2022-09-12T06:13:51.905Z,99.90
2022-09-12T06:16:21.264Z,99.90
2022-09-12T06:18:53.354Z,99.90
2022-09-12T06:21:22.728Z,99.90
2022-09-12T06:23:51.403Z,99.90
2022-09-12T06:26:21.647Z,99.90
2022-09-12T06:28:49.904Z,99.90
2022-09-12T06:31:20.518Z,99.90
2022-09-12T06:33:51.789Z,99.90
2022-09-12T06:36:22.435Z,99.90
2022-09-12T06:38:55.300Z,99.90
2022-09-12T06:41:23.015Z,99.90
2022-09-12T06:43:51.121Z,99.90
2022-09-12T06:46:19.404Z,99.90
2022-09-12T06:48:47.248Z,99.90
2022-09-12T06:51:18.433Z,99.90
2022-09-12T06:53:46.896Z,99.90
2022-09-12T06:56:16.734Z,99.90
2022-09-12T06:58:44.741Z,99.90
2022-09-12T07:01:15.156Z,99.90
2022-09-12T07:03:44.682Z,99.90
2022-09-12T07:06:14.431Z,99.90
2022-09-12T07:08:44.034Z,99.90
2022-09-12T07:11:14.360Z,99.90
2022-09-12T07:13:43.077Z,99.90
2022-09-12T07:16:13.816Z,99.90
2022-09-12T07:18:44.065Z,99.90
2022-09-12T07:21:13.946Z,99.90
2022-09-12T07:23:43.831Z,99.90
2022-09-12T07:26:13.468Z,99.90
2022-09-12T07:28:41.929Z,99.90
2022-09-12T07:31:11.516Z,99.90
2022-09-12T07:33:40.289Z,99.90
2022-09-12T07:36:11.548Z,99.90
2022-09-12T07:38:39.482Z,99.90
2022-09-12T07:41:13.562Z,99.90
2022-09-12T07:43:42.035Z,99.90
2022-09-12T07:46:10.431Z,99.90
2022-09-12T07:48:38.784Z,99.90
2022-09-12T07:51:08.324Z,99.90
2022-09-12T07:53:38.443Z,99.90
2022-09-12T07:56:07.858Z,99.90
2022-09-12T07:58:38.225Z,99.90
2022-09-12T08:01:07.272Z,99.90
2022-09-12T08:03:35.145Z,99.90
2022-09-12T08:06:06.869Z,99.90
2022-09-12T08:08:35.184Z,99.90
2022-09-12T08:11:05.942Z,99.90
2022-09-12T08:13:35.268Z,99.90
2022-09-12T08:16:07.924Z,99.90
2022-09-12T08:18:37.094Z,99.90
2022-09-12T08:21:06.713Z,95.70
2022-09-12T08:23:35.162Z,76.50
2022-09-12T08:26:06.322Z,67.10
2022-09-12T08:28:35.650Z,65.90
2022-09-12T08:31:06.031Z,62.30
2022-09-12T08:33:34.481Z,57.70
2022-09-12T08:36:07.052Z,53.70
2022-09-12T08:38:35.498Z,51.50
2022-09-12T08:41:10.569Z,48.80
2022-09-12T08:43:57.053Z,51.50
2022-09-12T08:46:33.055Z,50.90
2022-09-12T08:49:04.082Z,57.30
2022-09-12T08:51:34.143Z,55.50
2022-09-12T08:54:03.288Z,51.50
2022-09-12T08:56:37.061Z,49.50
2022-09-12T08:59:04.799Z,47.80
2022-09-12T09:01:39.080Z,47.50
2022-09-12T09:04:35.093Z,53.20
2022-09-12T09:07:27.971Z,61.10
2022-09-12T09:10:09.167Z,62.60
2022-09-12T09:12:44.480Z,60.30
2022-09-12T09:15:26.239Z,53.80
2022-09-12T09:18:00.470Z,49.10
2022-09-12T09:20:32.776Z,46.30
2022-09-12T09:23:04.734Z,46.20
2022-09-12T09:25:42.493Z,47.10
2022-09-12T09:28:16.558Z,46.00
2022-09-12T09:30:44.991Z,45.60
2022-09-12T09:33:22.111Z,45.90
2022-09-12T09:35:56.655Z,44.00
2022-09-12T09:38:29.344Z,42.70
2022-09-12T09:41:21.618Z,41.50
2022-09-12T09:43:49.405Z,42.50
2022-09-12T09:46:17.206Z,42.10
2022-09-12T09:48:49.133Z,40.60
2022-09-12T09:51:20.470Z,42.80
2022-09-12T09:53:53.714Z,46.40
2022-09-12T09:56:29.066Z,49.90
2022-09-12T09:58:57.055Z,56.50
2022-09-12T10:01:25.428Z,62.90
2022-09-12T10:03:56.357Z,64.90
2022-09-12T10:06:32.340Z,56.30
2022-09-12T10:09:18.277Z,52.50
2022-09-12T10:11:46.231Z,47.80
2022-09-12T10:14:34.967Z,45.20
2022-09-12T10:17:04.595Z,44.40
2022-09-12T10:19:38.403Z,44.20
2022-09-12T10:22:07.686Z,44.70
2022-09-12T10:24:41.243Z,46.20
2022-09-12T10:27:15.991Z,48.00
2022-09-12T10:29:47.815Z,49.40
2022-09-12T10:32:30.377Z,50.30
2022-09-12T10:35:02.644Z,49.10
2022-09-12T10:37:33.424Z,48.40
2022-09-12T10:40:02.296Z,49.00
2022-09-12T10:42:46.190Z,51.40
2022-09-12T10:45:25.917Z,55.10
2022-09-12T10:47:54.581Z,61.40
2022-09-12T10:50:26.802Z,62.50
2022-09-12T10:52:55.260Z,64.30
2022-09-12T10:55:31.253Z,68.00
2022-09-12T10:58:13.104Z,68.80
2022-09-12T11:00:48.819Z,67.50
2022-09-12T11:03:24.761Z,67.70
2022-09-12T11:06:01.469Z,69.50
2022-09-12T11:09:06.579Z,70.00
2022-09-12T11:11:47.381Z,70.20
2022-09-12T11:14:37.431Z,69.90
2022-09-12T11:17:17.446Z,68.50
2022-09-12T11:20:13.099Z,69.50
2022-09-12T11:23:01.968Z,69.00
2022-09-12T11:25:32.842Z,69.60
2022-09-12T11:28:25.380Z,70.40
2022-09-12T11:31:08.461Z,67.50
2022-09-12T11:33:43.351Z,67.60
2022-09-12T11:36:29.403Z,69.20
2022-09-12T11:39:04.298Z,70.90
2022-09-12T11:41:35.600Z,73.80
2022-09-12T11:44:11.733Z,69.50
2022-09-12T11:46:41.293Z,71.80
2022-09-12T11:49:19.427Z,75.20
2022-09-12T11:51:53.168Z,75.10
2022-09-12T11:54:29.594Z,74.20
2022-09-12T11:57:05.200Z,75.20
2022-09-12T11:59:40.919Z,75.80
2022-09-12T12:02:14.993Z,73.80
2022-09-12T12:05:00.232Z,73.70
2022-09-12T12:07:33.676Z,76.80
2022-09-12T12:10:03.107Z,74.20
2022-09-12T12:12:30.959Z,77.40
2022-09-12T12:14:59.247Z,80.60
2022-09-12T12:17:29.612Z,76.90
2022-09-12T12:20:06.715Z,81.20
2022-09-12T12:22:36.406Z,80.80
2022-09-12T12:25:09.444Z,77.70
2022-09-12T12:27:55.560Z,79.30
2022-09-12T12:31:01.102Z,80.20
2022-09-12T12:33:55.520Z,78.30
2022-09-12T12:36:40.355Z,78.90
2022-09-12T12:39:46.164Z,77.00
2022-09-12T12:43:04.534Z,79.60
2022-09-12T12:46:12.460Z,74.80
2022-09-12T12:48:55.689Z,82.60
2022-09-12T12:51:39.399Z,88.20
2022-09-12T12:54:28.199Z,89.80
2022-09-12T12:57:04.227Z,90.70
2022-09-12T12:59:32.460Z,90.70
2022-09-12T13:02:01.762Z,88.10
2022-09-12T13:04:33.996Z,86.10
2022-09-12T13:07:08.234Z,84.60
2022-09-12T13:09:44.225Z,89.00
2022-09-12T13:12:19.059Z,90.40
2022-09-12T13:14:53.704Z,83.70
2022-09-12T13:17:27.042Z,88.10
2022-09-12T13:20:26.603Z,87.80
2022-09-12T13:22:53.986Z,88.80
2022-09-12T13:25:26.039Z,94.90
2022-09-12T13:28:18.418Z,95.80
2022-09-12T13:30:48.783Z,95.80
2022-09-12T13:33:22.851Z,95.70
2022-09-12T13:36:36.912Z,95.30
2022-09-12T13:39:18.515Z,99.90
2022-09-12T13:42:03.278Z,96.50
2022-09-12T13:44:33.558Z,99.90
2022-09-12T13:47:02.767Z,99.90
2022-09-12T13:49:35.523Z,99.90
2022-09-12T13:52:07.477Z,99.90
2022-09-12T13:54:37.860Z,99.90
2022-09-12T13:57:07.000Z,99.90
2022-09-12T13:59:40.953Z,99.90
2022-09-12T14:02:21.001Z,99.90
2022-09-12T14:05:07.091Z,99.90
2022-09-12T14:07:40.945Z,99.90
2022-09-12T14:10:09.240Z,96.50
2022-09-12T14:12:40.629Z,99.90
2022-09-12T14:15:16.725Z,99.90
2022-09-12T14:17:52.180Z,99.90
2022-09-12T14:20:23.343Z,99.90
2022-09-12T14:22:53.689Z,99.90
2022-09-12T14:25:23.649Z,99.90
2022-09-12T14:27:54.704Z,98.20
2022-09-12T14:30:25.646Z,99.90
2022-09-12T14:33:17.731Z,98.60
2022-09-12T14:35:46.945Z,99.90
2022-09-12T14:38:25.417Z,99.90
2022-09-12T14:41:00.651Z,99.70
2022-09-12T14:43:31.433Z,99.80
2022-09-12T14:46:02.746Z,99.90
2022-09-12T14:48:33.317Z,99.90
2022-09-12T14:51:01.324Z,99.90
2022-09-12T14:53:35.092Z,99.90
2022-09-12T14:56:10.854Z,99.90
2022-09-12T14:58:39.217Z,99.90
2022-09-12T15:01:26.413Z,99.90
2022-09-12T15:03:56.530Z,99.90
2022-09-12T15:06:29.553Z,99.90
2022-09-12T15:09:01.012Z,99.90
2022-09-12T15:11:29.173Z,99.90
2022-09-12T15:13:56.930Z,99.90
2022-09-12T15:16:24.744Z,99.90
2022-09-12T15:18:52.494Z,99.90
2022-09-12T15:21:22.061Z,99.90
2022-09-12T15:23:51.076Z,99.90
2022-09-12T15:26:21.742Z,99.90
2022-09-12T15:28:49.643Z,99.90
2022-09-12T15:31:24.475Z,99.90
2022-09-12T15:33:52.293Z,99.90
2022-09-12T15:36:21.586Z,99.90
2022-09-12T15:38:50.483Z,99.90
2022-09-12T15:41:21.766Z,99.90
2022-09-12T15:43:49.902Z,99.90
2022-09-12T15:46:19.046Z,99.90
2022-09-12T15:48:47.067Z,99.90
2022-09-12T15:51:16.029Z,99.90
2022-09-12T15:53:44.830Z,99.90
2022-09-12T15:56:12.936Z,99.90
2022-09-12T15:58:57.196Z,99.90
2022-09-12T16:01:25.861Z,99.90
2022-09-12T16:03:53.656Z,99.90
2022-09-12T16:06:22.171Z,99.90
2022-09-12T16:08:50.180Z,99.90
2022-09-12T16:11:21.634Z,99.90
2022-09-12T16:13:52.485Z,99.90
2022-09-12T16:16:20.261Z,99.90
2022-09-12T16:18:48.116Z,99.90
2022-09-12T16:21:16.119Z,99.90
2022-09-12T16:23:44.114Z,99.90
2022-09-12T16:26:11.954Z,99.90
2022-09-12T16:28:39.958Z,99.90
2022-09-12T16:31:12.172Z,99.90
2022-09-12T16:33:41.164Z,99.90
2022-09-12T16:36:10.753Z,99.90
2022-09-12T16:38:43.024Z,99.90
2022-09-12T16:41:11.252Z,99.90
2022-09-12T16:43:39.440Z,99.90
2022-09-12T16:46:11.146Z,99.90
2022-09-12T16:48:42.924Z,99.90
2022-09-12T16:51:10.615Z,99.90
2022-09-12T16:53:39.513Z,99.90
2022-09-12T16:56:07.880Z,99.90
2022-09-12T16:58:41.615Z,99.90
2022-09-12T17:01:13.283Z,99.90
2022-09-12T17:03:41.616Z,99.90
2022-09-12T17:06:11.856Z,99.90
2022-09-12T17:08:41.269Z,99.90
2022-09-12T17:11:10.864Z,99.90
2022-09-12T17:14:02.815Z,99.90
2022-09-12T17:16:28.711Z,99.90
2022-09-12T17:18:56.863Z,99.90
2022-09-12T17:21:24.627Z,99.90
2022-09-12T17:23:52.434Z,99.90
2022-09-12T17:26:20.732Z,99.90
2022-09-12T17:28:48.685Z,99.90
2022-09-12T17:31:17.110Z,99.90
2022-09-12T17:33:46.432Z,99.90
2022-09-12T17:36:16.552Z,99.90
2022-09-12T17:38:46.047Z,99.90
2022-09-12T17:41:15.940Z,99.90
2022-09-12T17:43:44.073Z,99.90
2022-09-12T17:46:11.831Z,99.90
2022-09-12T17:48:39.718Z,99.90
2022-09-12T17:51:10.384Z,99.90
2022-09-12T17:53:38.259Z,99.90
2022-09-12T17:56:07.081Z,99.90
2022-09-12T17:58:35.564Z,99.90
2022-09-12T18:01:22.104Z,99.90
2022-09-12T18:03:50.014Z,99.90
2022-09-12T18:06:19.101Z,99.90
2022-09-12T18:08:46.903Z,99.90
2022-09-12T18:11:14.715Z,99.90
2022-09-12T18:13:42.592Z,99.90
2022-09-12T18:16:13.122Z,99.90
2022-09-12T18:18:41.244Z,99.90
2022-09-12T18:21:11.277Z,99.90
2022-09-12T18:23:40.581Z,99.90
2022-09-12T18:26:10.734Z,99.90
2022-09-12T18:28:41.741Z,99.90
2022-09-12T18:31:13.462Z,99.90
2022-09-12T18:33:41.629Z,99.90
2022-09-12T18:36:11.565Z,99.90
2022-09-12T18:38:42.221Z,99.90
2022-09-12T18:41:11.295Z,99.90
2022-09-12T18:43:39.743Z,99.90
2022-09-12T18:46:10.068Z,99.90
2022-09-12T18:48:37.876Z,99.90
2022-09-12T18:51:08.023Z,99.90
2022-09-12T18:53:36.781Z,99.90
2022-09-12T18:56:08.595Z,99.90
2022-09-12T18:58:36.600Z,99.90
2022-09-12T19:01:11.995Z,99.90
2022-09-12T19:03:39.907Z,99.90
2022-09-12T19:06:09.530Z,99.90
2022-09-12T19:08:38.070Z,99.90
2022-09-12T19:11:07.785Z,99.90
2022-09-12T19:13:37.149Z,99.90
2022-09-12T19:16:06.377Z,99.90
2022-09-12T19:18:34.788Z,99.90
2022-09-12T19:21:02.584Z,99.90
2022-09-12T19:23:32.389Z,99.90
2022-09-12T19:26:01.472Z,99.90
2022-09-12T19:28:31.186Z,99.90
2022-09-12T19:30:59.083Z,99.90
2022-09-12T19:33:26.949Z,99.90
2022-09-12T19:35:55.036Z,99.90
2022-09-12T19:38:22.832Z,99.90
2022-09-12T19:40:57.849Z,99.90
2022-09-12T19:43:25.719Z,99.90
2022-09-12T19:45:56.319Z,99.90
2022-09-12T19:48:24.633Z,99.90
2022-09-12T19:50:52.403Z,99.90
2022-09-12T19:53:21.188Z,99.90
2022-09-12T19:55:48.874Z,99.90
2022-09-12T19:58:16.625Z,99.90
2022-09-12T20:00:44.394Z,99.90
2022-09-12T20:03:13.591Z,99.90
2022-09-12T20:05:42.913Z,99.90
2022-09-12T20:08:10.795Z,99.90
2022-09-12T20:10:38.561Z,99.90
2022-09-12T20:13:07.110Z,99.90
2022-09-12T20:15:34.811Z,99.90
2022-09-12T20:18:02.531Z,99.90
2022-09-12T20:20:31.980Z,99.90
2022-09-12T20:22:59.739Z,99.90
2022-09-12T20:25:27.458Z,99.90
2022-09-12T20:27:59.950Z,99.90
2022-09-12T20:30:28.113Z,99.90
2022-09-12T20:32:56.006Z,99.90
2022-09-12T20:35:23.857Z,99.90
2022-09-12T20:37:52.952Z,99.90
2022-09-12T20:40:20.703Z,99.90
2022-09-12T20:42:48.492Z,99.90
2022-09-12T20:45:16.375Z,99.90
2022-09-12T20:47:44.150Z,99.90
2022-09-12T20:50:11.901Z,99.90
2022-09-12T20:52:39.633Z,99.90
2022-09-12T20:55:10.006Z,99.90
2022-09-12T20:57:37.777Z,99.90
2022-09-12T21:00:07.458Z,99.90
2022-09-12T21:02:35.277Z,99.90
2022-09-12T21:05:03.027Z,99.90
2022-09-12T21:07:31.784Z,99.90
2022-09-12T21:09:59.503Z,99.90
2022-09-12T21:12:29.650Z,99.90
2022-09-12T21:14:57.367Z,99.90
2022-09-12T21:17:25.125Z,99.90
2022-09-12T21:19:52.803Z,99.90
2022-09-12T21:22:20.517Z,99.90
2022-09-12T21:24:48.209Z,99.90
2022-09-12T21:27:15.899Z,99.90
2022-09-12T21:29:44.962Z,99.90
2022-09-12T21:32:14.335Z,99.90
2022-09-12T21:34:42.675Z,99.90
2022-09-12T21:37:10.361Z,99.90
2022-09-12T21:39:38.032Z,99.90
2022-09-12T21:42:05.929Z,99.90
2022-09-12T21:44:33.604Z,99.90
2022-09-12T21:47:02.705Z,99.90
2022-09-12T21:49:30.477Z,99.90
2022-09-12T21:51:58.186Z,99.90
2022-09-12T21:54:26.049Z,99.90
2022-09-12T21:56:53.877Z,99.90
2022-09-12T21:59:21.641Z,99.90
2022-09-12T22:01:49.451Z,99.90
2022-09-12T22:04:18.523Z,99.90
2022-09-12T22:06:46.244Z,99.90
2022-09-12T22:09:14.146Z,99.90
2022-09-12T22:11:41.933Z,99.90
2022-09-12T22:14:09.605Z,99.90
2022-09-12T22:16:37.300Z,99.90
2022-09-12T22:19:05.546Z,99.90
2022-09-12T22:21:34.623Z,99.90
2022-09-12T22:24:20.230Z,99.90
2022-09-12T22:26:47.981Z,99.90
2022-09-12T22:29:15.682Z,99.90
2022-09-12T22:31:43.564Z,99.90
2022-09-12T22:34:11.495Z,99.90
2022-09-12T22:36:40.865Z,99.90
2022-09-12T22:39:09.086Z,99.90
2022-09-12T22:41:36.809Z,99.90
2022-09-12T22:44:04.759Z,99.90
2022-09-12T22:46:32.541Z,99.90
2022-09-12T22:49:00.608Z,99.90
2022-09-12T22:51:28.754Z,99.90
2022-09-12T22:53:58.139Z,99.90
2022-09-12T22:56:26.260Z,99.90
2022-09-12T22:58:53.945Z,99.90
2022-09-12T23:01:22.050Z,99.90
2022-09-12T23:03:49.789Z,99.90
2022-09-12T23:06:18.968Z,99.90
2022-09-12T23:08:46.716Z,99.90
2022-09-12T23:11:17.486Z,99.90
2022-09-12T23:13:47.875Z,99.90
2022-09-12T23:16:18.255Z,99.90
2022-09-12T23:18:46.375Z,99.90
2022-09-12T23:21:15.800Z,99.90
2022-09-12T23:23:43.749Z,99.90
2022-09-12T23:26:13.502Z,99.90
2022-09-12T23:28:47.692Z,99.90
2022-09-12T23:31:16.038Z,99.90
2022-09-12T23:33:44.156Z,99.90
2022-09-12T23:36:14.449Z,99.90
2022-09-12T23:38:43.693Z,99.90
2022-09-12T23:41:12.723Z,99.90
2022-09-12T23:43:42.940Z,99.90
2022-09-12T23:46:10.998Z,99.90
2022-09-12T23:48:38.725Z,99.90
2022-09-12T23:51:06.655Z,99.90
2022-09-12T23:53:35.629Z,99.90
2022-09-12T23:56:04.177Z,99.90
2022-09-12T23:58:32.034Z,99.90
